Aeroporto :
LOGIN :

Iscrizione | Disclaimer

   EN    FR    IT 

 










Sommario :    VFR   VFR Marginale   IFR   IFR Intensivo   IFR Molto Intensivo
Visibilità : 
Base nubi : 
>= 8 km
>= 3000ft
5 / 8 km
1000 / 3000 ft
1500m / 5 km
500 / 1000 ft
800 / 1500m
200 / 500 ft
< 800m
< 200 ft
Simboli :   Temporali  Nebbia  Neve Forte  Precipitazioni Forti  Vento > 20 kt
SIGMETs :   Varie  Temporali  Ghiacco  Turbolenza  Onda orograficha  Ceneri Vulcaniche






- Altitudine del aeroporto : 36 ft


EGXV - RAF Leconfield

ULTIMO METAR :
  • 161250Z AUTO 01007KT 9999 FEW018/// OVC072/// 18/13 Q1008

METARs OBSOLETI :
  • 161220Z AUTO 36007KT 9999 SCT017/// OVC057/// 18/15 Q1008
  • 161150Z AUTO 34007KT 9999 SCT014/// SCT027/// OVC057/// 17/14 Q1008
  • 161120Z AUTO 36006KT 9999 OVC012/// 16/13 Q1007
  • 161050Z AUTO 36006KT //// OVC011/// 16/14 Q1007
  • 161020Z AUTO 36007KT 9999 OVC007/// 16/14 Q1007
  • 160950Z AUTO 36005KT 9999 // BKN007/// SCT016/// BKN028/// 15/14 Q1006
  • 160920Z AUTO 36006KT 9999 // OVC022/// 14/14 Q1006
  • 160850Z AUTO 35007KT 9999 -DZ SCT004/// OVC018/// 14/14 Q1006
  • 160820Z AUTO 01005KT 3800 -RA BKN005/// BKN025/// 14/14 Q1006
  • 160750Z AUTO 01006KT 7000 -DZ BKN003/// BKN019/// 14/14 Q1006

TAF N/A



MetMap, La meteo Aeronautica in un colpo d'occhio ! - Copyright ORBIFLY Dicembre 2007 - Disclaimer

ORBIFLY MET'MAP TEAM :

Programmazione e sviluppo : Alexandra Zaïnal
Concezione : Baudouin d'Aumeries
Supporto tecnico e logistico : Manuel Goepfert
Aiuto : Marc-Olivier Méhu
Aiuto per la traduzione : Arnaldo La Scala




FONTI E CREDITI :

   NOAA